sensor_id;sensor_type;location;lat;lon;timestamp;P1;durP1;ratioP1;P2;durP2;ratioP2
7173;SDS011;3628;48.654;8.932;2023-04-25T00:02:01;4.97;;;1.63;;
7173;SDS011;3628;48.654;8.932;2023-04-25T00:04:28;1.53;;;1.43;;
7173;SDS011;3628;48.654;8.932;2023-04-25T00:06:54;3.37;;;1.83;;
7173;SDS011;3628;48.654;8.932;2023-04-25T00:09:20;1.43;;;1.33;;
7173;SDS011;3628;48.654;8.932;2023-04-25T00:11:47;1.70;;;1.60;;
7173;SDS011;3628;48.654;8.932;2023-04-25T00:14:12;1.80;;;1.70;;
7173;SDS011;3628;48.654;8.932;2023-04-25T00:16:38;3.43;;;1.70;;
7173;SDS011;3628;48.654;8.932;2023-04-25T00:19:06;2.33;;;1.40;;
7173;SDS011;3628;48.654;8.932;2023-04-25T00:21:32;2.50;;;1.67;;
7173;SDS011;3628;48.654;8.932;2023-04-25T00:23:58;1.50;;;1.40;;
7173;SDS011;3628;48.654;8.932;2023-04-25T00:26:24;2.73;;;2.10;;
7173;SDS011;3628;48.654;8.932;2023-04-25T00:28:49;2.17;;;1.80;;
7173;SDS011;3628;48.654;8.932;2023-04-25T00:31:15;2.53;;;1.50;;
7173;SDS011;3628;48.654;8.932;2023-04-25T00:33:41;3.50;;;1.30;;
7173;SDS011;3628;48.654;8.932;2023-04-25T00:36:06;1.90;;;1.53;;
7173;SDS011;3628;48.654;8.932;2023-04-25T00:38:32;1.67;;;1.57;;
7173;SDS011;3628;48.654;8.932;2023-04-25T00:40:58;1.50;;;1.30;;
7173;SDS011;3628;48.654;8.932;2023-04-25T00:43:25;2.83;;;1.60;;
7173;SDS011;3628;48.654;8.932;2023-04-25T00:45:51;2.40;;;1.57;;
7173;SDS011;3628;48.654;8.932;2023-04-25T00:48:17;2.33;;;1.60;;
7173;SDS011;3628;48.654;8.932;2023-04-25T00:50:48;1.87;;;1.70;;
7173;SDS011;3628;48.654;8.932;2023-04-25T00:53:23;2.50;;;1.67;;
7173;SDS011;3628;48.654;8.932;2023-04-25T00:55:50;3.30;;;1.53;;
7173;SDS011;3628;48.654;8.932;2023-04-25T00:58:20;2.60;;;1.53;;
7173;SDS011;3628;48.654;8.932;2023-04-25T01:00:47;1.20;;;1.10;;
7173;SDS011;3628;48.654;8.932;2023-04-25T01:03:15;2.13;;;1.50;;
7173;SDS011;3628;48.654;8.932;2023-04-25T01:05:47;2.10;;;1.67;;
7173;SDS011;3628;48.654;8.932;2023-04-25T01:08:13;2.23;;;1.60;;
7173;SDS011;3628;48.654;8.932;2023-04-25T01:10:39;1.50;;;1.20;;
7173;SDS011;3628;48.654;8.932;2023-04-25T01:13:05;2.30;;;1.03;;
7173;SDS011;3628;48.654;8.932;2023-04-25T01:15:31;1.80;;;1.30;;
7173;SDS011;3628;48.654;8.932;2023-04-25T01:17:57;2.30;;;1.13;;
7173;SDS011;3628;48.654;8.932;2023-04-25T01:20:23;0.90;;;0.90;;
7173;SDS011;3628;48.654;8.932;2023-04-25T01:22:50;1.50;;;1.10;;
7173;SDS011;3628;48.654;8.932;2023-04-25T01:25:17;1.10;;;0.90;;
7173;SDS011;3628;48.654;8.932;2023-04-25T01:27:44;3.07;;;1.10;;
7173;SDS011;3628;48.654;8.932;2023-04-25T01:30:10;1.50;;;1.20;;
7173;SDS011;3628;48.654;8.932;2023-04-25T01:32:36;1.20;;;1.10;;
7173;SDS011;3628;48.654;8.932;2023-04-25T01:35:06;3.67;;;1.13;;
7173;SDS011;3628;48.654;8.932;2023-04-25T01:37:35;1.63;;;1.03;;
7173;SDS011;3628;48.654;8.932;2023-04-25T01:40:10;1.20;;;1.10;;
7173;SDS011;3628;48.654;8.932;2023-04-25T01:42:38;1.20;;;1.00;;
7173;SDS011;3628;48.654;8.932;2023-04-25T01:45:06;1.50;;;1.40;;
7173;SDS011;3628;48.654;8.932;2023-04-25T01:47:33;1.60;;;1.07;;
7173;SDS011;3628;48.654;8.932;2023-04-25T01:50:02;2.17;;;1.30;;
7173;SDS011;3628;48.654;8.932;2023-04-25T01:52:29;0.80;;;0.80;;
7173;SDS011;3628;48.654;8.932;2023-04-25T01:54:55;1.20;;;1.10;;
7173;SDS011;3628;48.654;8.932;2023-04-25T01:57:21;1.20;;;1.10;;
7173;SDS011;3628;48.654;8.932;2023-04-25T01:59:47;1.30;;;0.97;;
7173;SDS011;3628;48.654;8.932;2023-04-25T02:02:13;1.57;;;1.10;;
7173;SDS011;3628;48.654;8.932;2023-04-25T02:04:38;1.30;;;1.20;;
7173;SDS011;3628;48.654;8.932;2023-04-25T02:07:04;1.20;;;1.10;;
7173;SDS011;3628;48.654;8.932;2023-04-25T02:09:29;2.70;;;1.27;;
7173;SDS011;3628;48.654;8.932;2023-04-25T02:11:55;1.93;;;1.20;;
7173;SDS011;3628;48.654;8.932;2023-04-25T02:14:20;1.10;;;1.00;;
7173;SDS011;3628;48.654;8.932;2023-04-25T02:16:46;0.90;;;0.90;;
7173;SDS011;3628;48.654;8.932;2023-04-25T02:19:12;2.17;;;1.17;;
7173;SDS011;3628;48.654;8.932;2023-04-25T02:21:37;2.43;;;1.20;;
7173;SDS011;3628;48.654;8.932;2023-04-25T02:24:03;3.53;;;1.30;;
7173;SDS011;3628;48.654;8.932;2023-04-25T02:26:29;1.63;;;0.90;;
7173;SDS011;3628;48.654;8.932;2023-04-25T02:28:56;2.90;;;0.93;;
7173;SDS011;3628;48.654;8.932;2023-04-25T02:31:22;1.67;;;1.10;;
7173;SDS011;3628;48.654;8.932;2023-04-25T02:33:48;1.20;;;1.00;;
7173;SDS011;3628;48.654;8.932;2023-04-25T02:36:13;0.87;;;0.87;;
7173;SDS011;3628;48.654;8.932;2023-04-25T02:38:39;0.87;;;0.80;;
7173;SDS011;3628;48.654;8.932;2023-04-25T02:41:05;2.53;;;0.97;;
7173;SDS011;3628;48.654;8.932;2023-04-25T02:43:31;1.17;;;0.90;;
7173;SDS011;3628;48.654;8.932;2023-04-25T02:45:56;1.87;;;0.83;;
7173;SDS011;3628;48.654;8.932;2023-04-25T02:48:22;0.80;;;0.80;;
7173;SDS011;3628;48.654;8.932;2023-04-25T02:50:47;1.47;;;0.90;;
7173;SDS011;3628;48.654;8.932;2023-04-25T02:53:13;0.93;;;0.93;;
7173;SDS011;3628;48.654;8.932;2023-04-25T02:55:38;0.93;;;0.90;;
7173;SDS011;3628;48.654;8.932;2023-04-25T02:58:04;1.03;;;0.70;;
7173;SDS011;3628;48.654;8.932;2023-04-25T03:00:30;2.60;;;1.10;;
7173;SDS011;3628;48.654;8.932;2023-04-25T03:02:55;1.17;;;0.97;;
7173;SDS011;3628;48.654;8.932;2023-04-25T03:05:21;1.27;;;0.90;;
7173;SDS011;3628;48.654;8.932;2023-04-25T03:07:46;0.97;;;0.97;;
7173;SDS011;3628;48.654;8.932;2023-04-25T03:10:12;1.10;;;1.00;;
7173;SDS011;3628;48.654;8.932;2023-04-25T03:12:38;0.90;;;0.87;;
7173;SDS011;3628;48.654;8.932;2023-04-25T03:15:04;1.00;;;0.90;;
7173;SDS011;3628;48.654;8.932;2023-04-25T03:17:30;1.23;;;0.90;;
7173;SDS011;3628;48.654;8.932;2023-04-25T03:19:56;1.53;;;0.87;;
7173;SDS011;3628;48.654;8.932;2023-04-25T03:22:22;1.57;;;0.90;;
7173;SDS011;3628;48.654;8.932;2023-04-25T03:24:48;2.07;;;0.93;;
7173;SDS011;3628;48.654;8.932;2023-04-25T03:27:14;1.77;;;1.10;;
7173;SDS011;3628;48.654;8.932;2023-04-25T03:29:40;2.20;;;0.93;;
7173;SDS011;3628;48.654;8.932;2023-04-25T03:32:06;1.27;;;0.90;;
7173;SDS011;3628;48.654;8.932;2023-04-25T03:34:31;2.27;;;0.97;;
7173;SDS011;3628;48.654;8.932;2023-04-25T03:36:57;1.43;;;0.97;;
7173;SDS011;3628;48.654;8.932;2023-04-25T03:39:22;1.67;;;1.00;;
7173;SDS011;3628;48.654;8.932;2023-04-25T03:41:48;1.17;;;0.90;;
7173;SDS011;3628;48.654;8.932;2023-04-25T03:44:14;1.20;;;1.07;;
7173;SDS011;3628;48.654;8.932;2023-04-25T03:46:39;1.13;;;1.00;;
7173;SDS011;3628;48.654;8.932;2023-04-25T03:49:05;3.27;;;0.87;;
7173;SDS011;3628;48.654;8.932;2023-04-25T03:51:30;2.27;;;0.97;;
7173;SDS011;3628;48.654;8.932;2023-04-25T03:53:56;1.00;;;0.90;;
7173;SDS011;3628;48.654;8.932;2023-04-25T03:56:23;1.90;;;1.07;;
7173;SDS011;3628;48.654;8.932;2023-04-25T03:58:48;1.33;;;1.10;;
7173;SDS011;3628;48.654;8.932;2023-04-25T04:01:14;1.67;;;1.37;;
7173;SDS011;3628;48.654;8.932;2023-04-25T04:03:39;1.60;;;1.30;;
7173;SDS011;3628;48.654;8.932;2023-04-25T04:06:05;1.47;;;1.20;;
7173;SDS011;3628;48.654;8.932;2023-04-25T04:08:32;2.87;;;1.50;;
7173;SDS011;3628;48.654;8.932;2023-04-25T04:10:58;1.67;;;1.10;;
7173;SDS011;3628;48.654;8.932;2023-04-25T04:13:27;3.17;;;1.17;;
7173;SDS011;3628;48.654;8.932;2023-04-25T04:15:53;1.83;;;1.70;;
7173;SDS011;3628;48.654;8.932;2023-04-25T04:18:19;1.27;;;1.10;;
7173;SDS011;3628;48.654;8.932;2023-04-25T04:20:44;1.17;;;1.07;;
7173;SDS011;3628;48.654;8.932;2023-04-25T04:23:10;2.10;;;0.83;;
7173;SDS011;3628;48.654;8.932;2023-04-25T04:25:36;2.70;;;1.30;;
7173;SDS011;3628;48.654;8.932;2023-04-25T04:28:02;1.07;;;1.00;;
7173;SDS011;3628;48.654;8.932;2023-04-25T04:30:28;1.40;;;1.30;;
7173;SDS011;3628;48.654;8.932;2023-04-25T04:32:54;1.40;;;1.00;;
7173;SDS011;3628;48.654;8.932;2023-04-25T04:35:20;2.90;;;1.23;;
7173;SDS011;3628;48.654;8.932;2023-04-25T04:37:47;2.77;;;1.23;;
7173;SDS011;3628;48.654;8.932;2023-04-25T04:40:13;1.83;;;1.17;;
7173;SDS011;3628;48.654;8.932;2023-04-25T04:42:40;1.20;;;1.10;;
7173;SDS011;3628;48.654;8.932;2023-04-25T04:45:06;3.90;;;1.50;;
7173;SDS011;3628;48.654;8.932;2023-04-25T04:47:33;1.30;;;1.20;;
7173;SDS011;3628;48.654;8.932;2023-04-25T04:49:59;1.30;;;1.20;;
7173;SDS011;3628;48.654;8.932;2023-04-25T04:52:24;1.83;;;1.30;;
7173;SDS011;3628;48.654;8.932;2023-04-25T04:54:50;2.37;;;1.40;;
7173;SDS011;3628;48.654;8.932;2023-04-25T04:57:15;2.77;;;1.40;;
7173;SDS011;3628;48.654;8.932;2023-04-25T04:59:41;2.40;;;1.50;;
7173;SDS011;3628;48.654;8.932;2023-04-25T05:02:07;5.37;;;1.77;;
7173;SDS011;3628;48.654;8.932;2023-04-25T05:04:32;1.80;;;1.30;;
7173;SDS011;3628;48.654;8.932;2023-04-25T05:06:58;1.70;;;1.60;;
7173;SDS011;3628;48.654;8.932;2023-04-25T05:09:24;3.43;;;1.67;;
7173;SDS011;3628;48.654;8.932;2023-04-25T05:11:50;2.87;;;1.80;;
7173;SDS011;3628;48.654;8.932;2023-04-25T05:14:16;2.07;;;1.73;;
7173;SDS011;3628;48.654;8.932;2023-04-25T05:16:42;3.30;;;1.67;;
7173;SDS011;3628;48.654;8.932;2023-04-25T05:19:09;2.90;;;1.37;;
7173;SDS011;3628;48.654;8.932;2023-04-25T05:21:34;2.10;;;1.50;;
7173;SDS011;3628;48.654;8.932;2023-04-25T05:24:00;3.53;;;1.67;;
7173;SDS011;3628;48.654;8.932;2023-04-25T05:26:26;3.90;;;1.80;;
7173;SDS011;3628;48.654;8.932;2023-04-25T05:28:55;2.10;;;1.90;;
7173;SDS011;3628;48.654;8.932;2023-04-25T05:31:22;2.87;;;1.80;;
7173;SDS011;3628;48.654;8.932;2023-04-25T05:33:47;4.53;;;1.70;;
7173;SDS011;3628;48.654;8.932;2023-04-25T05:36:13;2.53;;;1.60;;
7173;SDS011;3628;48.654;8.932;2023-04-25T05:38:38;1.87;;;1.40;;
7173;SDS011;3628;48.654;8.932;2023-04-25T05:41:04;1.83;;;1.63;;
7173;SDS011;3628;48.654;8.932;2023-04-25T05:43:29;2.37;;;1.60;;
7173;SDS011;3628;48.654;8.932;2023-04-25T05:45:55;3.53;;;1.57;;
7173;SDS011;3628;48.654;8.932;2023-04-25T05:48:21;2.63;;;1.70;;
7173;SDS011;3628;48.654;8.932;2023-04-25T05:50:46;5.03;;;1.70;;
7173;SDS011;3628;48.654;8.932;2023-04-25T05:53:12;1.53;;;1.43;;
7173;SDS011;3628;48.654;8.932;2023-04-25T05:55:37;2.70;;;1.60;;
7173;SDS011;3628;48.654;8.932;2023-04-25T05:58:04;3.67;;;1.50;;
7173;SDS011;3628;48.654;8.932;2023-04-25T06:00:30;2.43;;;1.70;;
7173;SDS011;3628;48.654;8.932;2023-04-25T06:02:56;2.97;;;1.93;;
7173;SDS011;3628;48.654;8.932;2023-04-25T06:05:21;3.80;;;1.60;;
7173;SDS011;3628;48.654;8.932;2023-04-25T06:07:47;4.97;;;2.70;;
7173;SDS011;3628;48.654;8.932;2023-04-25T06:10:12;6.87;;;3.17;;
7173;SDS011;3628;48.654;8.932;2023-04-25T06:12:38;5.67;;;3.23;;
7173;SDS011;3628;48.654;8.932;2023-04-25T06:15:04;3.80;;;2.50;;
7173;SDS011;3628;48.654;8.932;2023-04-25T06:17:30;4.83;;;2.30;;
7173;SDS011;3628;48.654;8.932;2023-04-25T06:19:55;3.10;;;2.33;;
7173;SDS011;3628;48.654;8.932;2023-04-25T06:22:21;4.27;;;1.70;;
7173;SDS011;3628;48.654;8.932;2023-04-25T06:24:46;3.63;;;1.87;;
7173;SDS011;3628;48.654;8.932;2023-04-25T06:27:12;1.97;;;1.30;;
7173;SDS011;3628;48.654;8.932;2023-04-25T06:29:37;2.97;;;1.87;;
7173;SDS011;3628;48.654;8.932;2023-04-25T06:32:03;5.50;;;1.63;;
7173;SDS011;3628;48.654;8.932;2023-04-25T06:34:29;2.37;;;1.73;;
7173;SDS011;3628;48.654;8.932;2023-04-25T06:36:55;3.00;;;1.80;;
7173;SDS011;3628;48.654;8.932;2023-04-25T06:39:20;4.43;;;1.90;;
7173;SDS011;3628;48.654;8.932;2023-04-25T06:41:48;3.47;;;1.40;;
7173;SDS011;3628;48.654;8.932;2023-04-25T06:44:14;3.37;;;1.70;;
7173;SDS011;3628;48.654;8.932;2023-04-25T06:46:40;3.23;;;1.57;;
7173;SDS011;3628;48.654;8.932;2023-04-25T06:49:05;2.80;;;1.80;;
7173;SDS011;3628;48.654;8.932;2023-04-25T06:51:31;1.63;;;1.53;;
7173;SDS011;3628;48.654;8.932;2023-04-25T06:53:57;1.77;;;1.50;;
7173;SDS011;3628;48.654;8.932;2023-04-25T06:56:22;3.03;;;1.40;;
7173;SDS011;3628;48.654;8.932;2023-04-25T06:58:48;2.33;;;1.50;;
7173;SDS011;3628;48.654;8.932;2023-04-25T07:01:14;2.03;;;1.63;;
7173;SDS011;3628;48.654;8.932;2023-04-25T07:03:39;3.97;;;1.60;;
7173;SDS011;3628;48.654;8.932;2023-04-25T07:06:05;1.83;;;1.70;;
7173;SDS011;3628;48.654;8.932;2023-04-25T07:08:31;1.80;;;1.70;;
7173;SDS011;3628;48.654;8.932;2023-04-25T07:10:56;2.93;;;2.00;;
7173;SDS011;3628;48.654;8.932;2023-04-25T07:13:22;4.97;;;3.60;;
7173;SDS011;3628;48.654;8.932;2023-04-25T07:15:47;2.97;;;2.07;;
7173;SDS011;3628;48.654;8.932;2023-04-25T07:18:13;2.57;;;1.97;;
7173;SDS011;3628;48.654;8.932;2023-04-25T07:20:39;3.13;;;1.67;;
7173;SDS011;3628;48.654;8.932;2023-04-25T07:23:04;3.20;;;1.70;;
7173;SDS011;3628;48.654;8.932;2023-04-25T07:25:30;2.37;;;1.50;;
7173;SDS011;3628;48.654;8.932;2023-04-25T07:27:56;3.03;;;1.60;;
7173;SDS011;3628;48.654;8.932;2023-04-25T07:30:22;2.83;;;1.50;;
7173;SDS011;3628;48.654;8.932;2023-04-25T07:32:50;3.07;;;2.10;;
7173;SDS011;3628;48.654;8.932;2023-04-25T07:35:16;2.10;;;1.80;;
7173;SDS011;3628;48.654;8.932;2023-04-25T07:37:42;2.17;;;1.73;;
7173;SDS011;3628;48.654;8.932;2023-04-25T07:40:08;3.83;;;1.80;;
7173;SDS011;3628;48.654;8.932;2023-04-25T07:42:34;2.33;;;1.93;;
7173;SDS011;3628;48.654;8.932;2023-04-25T07:45:00;2.33;;;1.70;;
7173;SDS011;3628;48.654;8.932;2023-04-25T07:47:26;2.80;;;1.90;;
7173;SDS011;3628;48.654;8.932;2023-04-25T07:49:54;3.30;;;1.83;;
7173;SDS011;3628;48.654;8.932;2023-04-25T07:52:21;2.60;;;1.80;;
7173;SDS011;3628;48.654;8.932;2023-04-25T07:54:46;2.67;;;1.80;;
7173;SDS011;3628;48.654;8.932;2023-04-25T07:57:13;2.00;;;1.60;;
7173;SDS011;3628;48.654;8.932;2023-04-25T07:59:39;2.03;;;1.67;;
7173;SDS011;3628;48.654;8.932;2023-04-25T08:02:06;2.97;;;1.90;;
7173;SDS011;3628;48.654;8.932;2023-04-25T08:04:32;1.93;;;1.70;;
7173;SDS011;3628;48.654;8.932;2023-04-25T08:06:57;2.40;;;1.90;;
7173;SDS011;3628;48.654;8.932;2023-04-25T08:09:23;2.00;;;1.80;;
7173;SDS011;3628;48.654;8.932;2023-04-25T08:11:49;2.70;;;2.03;;
7173;SDS011;3628;48.654;8.932;2023-04-25T08:14:15;2.67;;;1.83;;
7173;SDS011;3628;48.654;8.932;2023-04-25T08:16:43;2.60;;;2.07;;
7173;SDS011;3628;48.654;8.932;2023-04-25T08:19:09;2.33;;;1.97;;
7173;SDS011;3628;48.654;8.932;2023-04-25T08:21:36;2.30;;;2.10;;
7173;SDS011;3628;48.654;8.932;2023-04-25T08:24:01;2.27;;;2.07;;
7173;SDS011;3628;48.654;8.932;2023-04-25T08:26:27;2.40;;;1.80;;
7173;SDS011;3628;48.654;8.932;2023-04-25T08:28:53;2.93;;;2.20;;
7173;SDS011;3628;48.654;8.932;2023-04-25T08:31:21;3.03;;;2.10;;
7173;SDS011;3628;48.654;8.932;2023-04-25T08:33:47;2.37;;;2.00;;
7173;SDS011;3628;48.654;8.932;2023-04-25T08:36:12;1.90;;;1.70;;
7173;SDS011;3628;48.654;8.932;2023-04-25T08:38:38;2.00;;;1.80;;
7173;SDS011;3628;48.654;8.932;2023-04-25T08:41:04;2.10;;;1.90;;
7173;SDS011;3628;48.654;8.932;2023-04-25T08:43:31;2.80;;;1.90;;
7173;SDS011;3628;48.654;8.932;2023-04-25T08:45:58;2.80;;;1.50;;
7173;SDS011;3628;48.654;8.932;2023-04-25T08:48:27;1.80;;;1.57;;
7173;SDS011;3628;48.654;8.932;2023-04-25T08:50:54;2.30;;;1.50;;
7173;SDS011;3628;48.654;8.932;2023-04-25T08:53:27;2.00;;;1.60;;
7173;SDS011;3628;48.654;8.932;2023-04-25T08:55:55;1.70;;;1.57;;
7173;SDS011;3628;48.654;8.932;2023-04-25T08:58:22;3.03;;;1.37;;
7173;SDS011;3628;48.654;8.932;2023-04-25T09:00:48;2.47;;;1.30;;
7173;SDS011;3628;48.654;8.932;2023-04-25T09:03:15;1.83;;;1.10;;
7173;SDS011;3628;48.654;8.932;2023-04-25T09:05:41;1.30;;;1.20;;
7173;SDS011;3628;48.654;8.932;2023-04-25T09:08:07;2.60;;;1.37;;
7173;SDS011;3628;48.654;8.932;2023-04-25T09:10:33;1.40;;;1.30;;
7173;SDS011;3628;48.654;8.932;2023-04-25T09:15:48;1.40;;;1.20;;
7173;SDS011;3628;48.654;8.932;2023-04-25T09:18:14;1.67;;;0.97;;
7173;SDS011;3628;48.654;8.932;2023-04-25T09:20:51;1.13;;;1.00;;
7173;SDS011;3628;48.654;8.932;2023-04-25T09:23:19;1.20;;;1.10;;
7173;SDS011;3628;48.654;8.932;2023-04-25T09:25:48;0.80;;;0.80;;
7173;SDS011;3628;48.654;8.932;2023-04-25T09:28:14;1.07;;;0.77;;
7173;SDS011;3628;48.654;8.932;2023-04-25T09:30:40;0.60;;;0.50;;
7173;SDS011;3628;48.654;8.932;2023-04-25T09:33:07;0.50;;;0.50;;
7173;SDS011;3628;48.654;8.932;2023-04-25T09:35:37;0.50;;;0.37;;
7173;SDS011;3628;48.654;8.932;2023-04-25T09:38:11;0.60;;;0.60;;
7173;SDS011;3628;48.654;8.932;2023-04-25T09:40:39;0.67;;;0.57;;
7173;SDS011;3628;48.654;8.932;2023-04-25T09:43:08;0.70;;;0.30;;
7173;SDS011;3628;48.654;8.932;2023-04-25T09:45:40;0.80;;;0.47;;
7173;SDS011;3628;48.654;8.932;2023-04-25T09:48:10;0.43;;;0.43;;
7173;SDS011;3628;48.654;8.932;2023-04-25T09:50:37;0.50;;;0.50;;
7173;SDS011;3628;48.654;8.932;2023-04-25T09:53:05;0.47;;;0.40;;
7173;SDS011;3628;48.654;8.932;2023-04-25T09:55:32;0.50;;;0.50;;
7173;SDS011;3628;48.654;8.932;2023-04-25T09:58:00;0.67;;;0.33;;
7173;SDS011;3628;48.654;8.932;2023-04-25T10:00:33;0.50;;;0.40;;
7173;SDS011;3628;48.654;8.932;2023-04-25T10:03:02;0.33;;;0.27;;
7173;SDS011;3628;48.654;8.932;2023-04-25T10:05:30;0.37;;;0.30;;
7173;SDS011;3628;48.654;8.932;2023-04-25T10:08:00;0.30;;;0.30;;
7173;SDS011;3628;48.654;8.932;2023-04-25T10:10:29;0.37;;;0.37;;
7173;SDS011;3628;48.654;8.932;2023-04-25T10:12:57;1.27;;;0.40;;
7173;SDS011;3628;48.654;8.932;2023-04-25T10:15:24;0.30;;;0.30;;
7173;SDS011;3628;48.654;8.932;2023-04-25T10:17:50;0.50;;;0.20;;
7173;SDS011;3628;48.654;8.932;2023-04-25T10:20:16;0.47;;;0.33;;
7173;SDS011;3628;48.654;8.932;2023-04-25T10:22:42;0.27;;;0.27;;
7173;SDS011;3628;48.654;8.932;2023-04-25T10:25:10;0.20;;;0.20;;
7173;SDS011;3628;48.654;8.932;2023-04-25T10:27:36;0.47;;;0.10;;
7173;SDS011;3628;48.654;8.932;2023-04-25T10:32:35;0.10;;;0.10;;
7173;SDS011;3628;48.654;8.932;2023-04-25T10:40:29;0.10;;;0.10;;
7173;SDS011;3628;48.654;8.932;2023-04-25T10:42:57;0.10;;;0.10;;
7173;SDS011;3628;48.654;8.932;2023-04-25T10:48:52;0.97;;;0.40;;
7173;SDS011;3628;48.654;8.932;2023-04-25T10:51:23;0.23;;;0.23;;
7173;SDS011;3628;48.654;8.932;2023-04-25T10:56:21;0.80;;;0.30;;
7173;SDS011;3628;48.654;8.932;2023-04-25T10:58:50;0.30;;;0.30;;
7173;SDS011;3628;48.654;8.932;2023-04-25T11:01:19;0.23;;;0.10;;
7173;SDS011;3628;48.654;8.932;2023-04-25T11:03:46;0.13;;;0.13;;
7173;SDS011;3628;48.654;8.932;2023-04-25T11:09:11;0.20;;;0.20;;
7173;SDS011;3628;48.654;8.932;2023-04-25T11:11:38;0.27;;;0.27;;
7173;SDS011;3628;48.654;8.932;2023-04-25T11:14:03;0.30;;;0.30;;
7173;SDS011;3628;48.654;8.932;2023-04-25T11:16:29;0.17;;;0.10;;
7173;SDS011;3628;48.654;8.932;2023-04-25T11:18:57;0.20;;;0.20;;
7173;SDS011;3628;48.654;8.932;2023-04-25T11:21:23;0.17;;;0.17;;
7173;SDS011;3628;48.654;8.932;2023-04-25T11:23:51;0.10;;;0.10;;
7173;SDS011;3628;48.654;8.932;2023-04-25T11:26:18;0.30;;;0.27;;
7173;SDS011;3628;48.654;8.932;2023-04-25T11:28:45;0.53;;;0.30;;
7173;SDS011;3628;48.654;8.932;2023-04-25T11:31:11;0.43;;;0.20;;
7173;SDS011;3628;48.654;8.932;2023-04-25T11:33:37;0.80;;;0.80;;
7173;SDS011;3628;48.654;8.932;2023-04-25T11:36:03;0.20;;;0.20;;
7173;SDS011;3628;48.654;8.932;2023-04-25T11:38:29;0.37;;;0.37;;
7173;SDS011;3628;48.654;8.932;2023-04-25T11:40:54;0.60;;;0.60;;
7173;SDS011;3628;48.654;8.932;2023-04-25T11:43:20;0.50;;;0.50;;
7173;SDS011;3628;48.654;8.932;2023-04-25T11:45:50;0.70;;;0.70;;
7173;SDS011;3628;48.654;8.932;2023-04-25T11:48:16;0.60;;;0.60;;
7173;SDS011;3628;48.654;8.932;2023-04-25T11:50:43;0.70;;;0.70;;
7173;SDS011;3628;48.654;8.932;2023-04-25T11:53:08;2.27;;;0.77;;
7173;SDS011;3628;48.654;8.932;2023-04-25T11:55:35;1.33;;;1.17;;
7173;SDS011;3628;48.654;8.932;2023-04-25T11:58:01;1.07;;;1.00;;
7173;SDS011;3628;48.654;8.932;2023-04-25T12:00:28;1.23;;;1.03;;
7173;SDS011;3628;48.654;8.932;2023-04-25T12:02:54;1.20;;;1.07;;
7173;SDS011;3628;48.654;8.932;2023-04-25T12:05:26;1.50;;;1.40;;
7173;SDS011;3628;48.654;8.932;2023-04-25T12:07:53;2.03;;;1.40;;
7173;SDS011;3628;48.654;8.932;2023-04-25T12:10:19;3.07;;;1.43;;
7173;SDS011;3628;48.654;8.932;2023-04-25T12:12:46;1.63;;;1.53;;
7173;SDS011;3628;48.654;8.932;2023-04-25T12:17:40;2.97;;;1.77;;
7173;SDS011;3628;48.654;8.932;2023-04-25T12:20:09;1.60;;;1.50;;
7173;SDS011;3628;48.654;8.932;2023-04-25T12:22:37;2.97;;;1.65;;
7173;SDS011;3628;48.654;8.932;2023-04-25T12:25:03;1.97;;;1.57;;
7173;SDS011;3628;48.654;8.932;2023-04-25T12:27:30;1.10;;;1.00;;
7173;SDS011;3628;48.654;8.932;2023-04-25T12:29:57;1.40;;;1.20;;
7173;SDS011;3628;48.654;8.932;2023-04-25T12:32:23;2.70;;;1.43;;
7173;SDS011;3628;48.654;8.932;2023-04-25T12:34:50;2.63;;;1.27;;
7173;SDS011;3628;48.654;8.932;2023-04-25T12:37:15;1.17;;;1.07;;
7173;SDS011;3628;48.654;8.932;2023-04-25T12:39:41;1.20;;;1.10;;
7173;SDS011;3628;48.654;8.932;2023-04-25T12:42:06;1.40;;;1.30;;
7173;SDS011;3628;48.654;8.932;2023-04-25T12:44:38;1.50;;;1.40;;
7173;SDS011;3628;48.654;8.932;2023-04-25T12:47:04;1.50;;;1.40;;
7173;SDS011;3628;48.654;8.932;2023-04-25T12:49:30;1.30;;;1.20;;
7173;SDS011;3628;48.654;8.932;2023-04-25T12:51:56;2.87;;;1.43;;
7173;SDS011;3628;48.654;8.932;2023-04-25T12:54:22;1.57;;;1.47;;
7173;SDS011;3628;48.654;8.932;2023-04-25T12:56:48;2.10;;;1.40;;
7173;SDS011;3628;48.654;8.932;2023-04-25T12:59:15;2.73;;;1.40;;
7173;SDS011;3628;48.654;8.932;2023-04-25T13:01:40;1.30;;;1.20;;
7173;SDS011;3628;48.654;8.932;2023-04-25T13:04:06;1.50;;;1.40;;
7173;SDS011;3628;48.654;8.932;2023-04-25T13:06:31;3.90;;;1.67;;
7173;SDS011;3628;48.654;8.932;2023-04-25T13:08:57;2.30;;;1.60;;
7173;SDS011;3628;48.654;8.932;2023-04-25T13:11:23;4.50;;;1.90;;
7173;SDS011;3628;48.654;8.932;2023-04-25T13:13:48;3.13;;;1.70;;
7173;SDS011;3628;48.654;8.932;2023-04-25T13:16:14;2.40;;;1.70;;
7173;SDS011;3628;48.654;8.932;2023-04-25T13:18:40;4.97;;;2.40;;
7173;SDS011;3628;48.654;8.932;2023-04-25T13:21:06;4.00;;;2.17;;
7173;SDS011;3628;48.654;8.932;2023-04-25T13:23:31;2.30;;;1.93;;
7173;SDS011;3628;48.654;8.932;2023-04-25T13:25:57;1.70;;;1.60;;
7173;SDS011;3628;48.654;8.932;2023-04-25T13:28:23;2.10;;;1.83;;
7173;SDS011;3628;48.654;8.932;2023-04-25T13:30:50;4.67;;;2.13;;
7173;SDS011;3628;48.654;8.932;2023-04-25T13:33:16;2.60;;;1.80;;
7173;SDS011;3628;48.654;8.932;2023-04-25T13:35:42;1.63;;;1.50;;
7173;SDS011;3628;48.654;8.932;2023-04-25T13:38:08;3.63;;;1.80;;
7173;SDS011;3628;48.654;8.932;2023-04-25T13:40:33;1.47;;;1.37;;
7173;SDS011;3628;48.654;8.932;2023-04-25T13:43:00;2.73;;;1.80;;
7173;SDS011;3628;48.654;8.932;2023-04-25T13:45:26;1.20;;;1.10;;
7173;SDS011;3628;48.654;8.932;2023-04-25T13:47:52;2.57;;;1.57;;
7173;SDS011;3628;48.654;8.932;2023-04-25T13:50:17;2.53;;;1.43;;
7173;SDS011;3628;48.654;8.932;2023-04-25T13:52:43;1.77;;;1.67;;
7173;SDS011;3628;48.654;8.932;2023-04-25T13:55:08;3.17;;;2.43;;
7173;SDS011;3628;48.654;8.932;2023-04-25T13:57:35;3.13;;;2.30;;
7173;SDS011;3628;48.654;8.932;2023-04-25T14:00:01;3.70;;;2.40;;
7173;SDS011;3628;48.654;8.932;2023-04-25T14:02:36;3.50;;;2.27;;
7173;SDS011;3628;48.654;8.932;2023-04-25T14:05:03;2.30;;;2.10;;
7173;SDS011;3628;48.654;8.932;2023-04-25T14:07:29;3.03;;;2.63;;
7173;SDS011;3628;48.654;8.932;2023-04-25T14:09:55;2.67;;;2.40;;
7173;SDS011;3628;48.654;8.932;2023-04-25T14:12:22;2.67;;;2.30;;
7173;SDS011;3628;48.654;8.932;2023-04-25T14:14:48;2.93;;;2.53;;
7173;SDS011;3628;48.654;8.932;2023-04-25T14:17:13;3.47;;;2.40;;
7173;SDS011;3628;48.654;8.932;2023-04-25T14:19:39;2.63;;;2.43;;
7173;SDS011;3628;48.654;8.932;2023-04-25T14:22:08;4.47;;;2.27;;
7173;SDS011;3628;48.654;8.932;2023-04-25T14:24:34;2.47;;;2.20;;
7173;SDS011;3628;48.654;8.932;2023-04-25T14:26:59;2.10;;;1.90;;
7173;SDS011;3628;48.654;8.932;2023-04-25T14:29:26;1.80;;;1.70;;
7173;SDS011;3628;48.654;8.932;2023-04-25T14:31:51;2.47;;;1.50;;
7173;SDS011;3628;48.654;8.932;2023-04-25T14:34:18;3.00;;;1.77;;
7173;SDS011;3628;48.654;8.932;2023-04-25T14:36:44;1.67;;;1.30;;
7173;SDS011;3628;48.654;8.932;2023-04-25T14:39:09;1.50;;;1.30;;
7173;SDS011;3628;48.654;8.932;2023-04-25T14:41:35;1.87;;;1.50;;
7173;SDS011;3628;48.654;8.932;2023-04-25T14:44:00;1.93;;;1.50;;
7173;SDS011;3628;48.654;8.932;2023-04-25T14:46:26;1.77;;;1.20;;
7173;SDS011;3628;48.654;8.932;2023-04-25T14:48:52;0.80;;;0.80;;
7173;SDS011;3628;48.654;8.932;2023-04-25T14:51:18;1.10;;;1.00;;
7173;SDS011;3628;48.654;8.932;2023-04-25T14:53:43;1.50;;;0.80;;
7173;SDS011;3628;48.654;8.932;2023-04-25T14:56:09;1.00;;;0.87;;
7173;SDS011;3628;48.654;8.932;2023-04-25T14:58:35;1.30;;;0.80;;
7173;SDS011;3628;48.654;8.932;2023-04-25T15:01:00;1.90;;;0.70;;
7173;SDS011;3628;48.654;8.932;2023-04-25T15:03:26;1.07;;;0.60;;
7173;SDS011;3628;48.654;8.932;2023-04-25T15:05:52;0.87;;;0.60;;
7173;SDS011;3628;48.654;8.932;2023-04-25T15:08:19;0.53;;;0.50;;
7173;SDS011;3628;48.654;8.932;2023-04-25T15:10:45;0.60;;;0.60;;
7173;SDS011;3628;48.654;8.932;2023-04-25T15:13:11;0.40;;;0.40;;
7173;SDS011;3628;48.654;8.932;2023-04-25T15:15:37;0.50;;;0.50;;
7173;SDS011;3628;48.654;8.932;2023-04-25T15:18:02;0.80;;;0.80;;
7173;SDS011;3628;48.654;8.932;2023-04-25T15:20:28;1.40;;;1.30;;
7173;SDS011;3628;48.654;8.932;2023-04-25T15:22:54;1.13;;;0.87;;
7173;SDS011;3628;48.654;8.932;2023-04-25T15:25:20;0.60;;;0.60;;
7173;SDS011;3628;48.654;8.932;2023-04-25T15:27:45;0.80;;;0.80;;
7173;SDS011;3628;48.654;8.932;2023-04-25T15:30:13;1.10;;;0.70;;
7173;SDS011;3628;48.654;8.932;2023-04-25T15:32:40;0.70;;;0.70;;